Time;durP1;ratioP1;P1;durP2;ratioP2;P2;SDS_P1;SDS_P2;PMS_P1;PMS_P2;Temp;Humidity;BMP_temperature;BMP_pressure;BME280_temperature;BME280_humidity;BME280_pressure;Samples;Min_cycle;Max_cycle;Signal;HPM_P1;HPM_P2
2021/09/07 00:02:06;;;;;;;7.00;4.20;;;;;;;8.23;80.81;101468.40;95250;1183;88050;-59
2021/09/07 00:04:14;;;;;;;6.10;3.90;;;;;;;8.22;80.76;101465.39;95252;1183;94179;-61
2021/09/07 00:06:24;;;;;;;7.20;4.50;;;;;;;8.21;80.87;101464.31;95286;1183;77733;-59
2021/09/07 00:08:32;;;;;;;7.40;4.00;;;;;;;8.20;80.87;101460.83;95269;1183;82030;-66
2021/09/07 00:10:39;;;;;;;7.70;4.00;;;;;;;8.20;80.95;101465.05;95224;1180;96586;-67
2021/09/07 00:12:48;;;;;;;8.20;4.40;;;;;;;8.20;80.97;101464.05;95277;1180;88020;-64
2021/09/07 00:14:56;;;;;;;8.20;4.20;;;;;;;8.21;80.88;101462.52;95285;1180;93727;-60
2021/09/07 00:17:04;;;;;;;7.70;4.30;;;;;;;8.22;80.96;101457.04;95283;1183;79398;-60
2021/09/07 00:19:15;;;;;;;8.60;4.30;;;;;;;8.22;80.88;101451.61;95253;1181;81874;-61
2021/09/07 00:21:22;;;;;;;7.00;4.30;;;;;;;8.21;80.94;101450.61;95248;1181;98967;-60
2021/09/07 00:23:30;;;;;;;10.50;5.40;;;;;;;8.20;80.95;101452.02;95233;1183;88004;-66
2021/09/07 00:25:37;;;;;;;11.30;4.40;;;;;;;8.19;81.02;101451.56;95227;1183;94297;-66
2021/09/07 00:27:49;;;;;;;9.60;4.50;;;;;;;8.21;81.14;101449.61;95299;1181;78330;-67
2021/09/07 00:29:57;;;;;;;8.50;4.60;;;;;;;8.21;81.11;101448.16;95261;1183;83200;-61
2021/09/07 00:32:05;;;;;;;9.40;4.40;;;;;;;8.19;81.24;101448.27;95272;1183;98160;-61
2021/09/07 00:34:13;;;;;;;7.40;4.30;;;;;;;8.17;81.16;101445.66;95264;1180;88333;-60
2021/09/07 00:36:21;;;;;;;8.00;4.50;;;;;;;8.16;81.12;101446.98;95222;1180;93977;-59
2021/09/07 00:38:28;;;;;;;5.70;4.10;;;;;;;8.16;81.17;101446.60;95262;1182;80502;-61
2021/09/07 00:40:36;;;;;;;7.40;5.10;;;;;;;8.16;81.26;101440.58;95255;1180;82117;-62
2021/09/07 00:42:46;;;;;;;7.50;4.40;;;;;;;8.17;81.26;101439.70;95263;1183;98150;-59
2021/09/07 00:44:53;;;;;;;9.90;4.90;;;;;;;8.17;81.35;101437.38;95284;1183;87184;-66
2021/09/07 00:47:04;;;;;;;9.70;4.60;;;;;;;8.16;81.39;101437.83;95242;1180;95017;-66
2021/09/07 00:49:13;;;;;;;7.10;4.80;;;;;;;8.17;81.31;101437.17;95224;1183;80769;-60
2021/09/07 00:51:22;;;;;;;8.80;4.90;;;;;;;8.21;81.42;101431.12;95267;1183;82436;-60
2021/09/07 00:53:30;;;;;;;6.70;4.60;;;;;;;8.22;81.42;101429.90;95243;1183;99496;-60
2021/09/07 00:55:38;;;;;;;7.60;4.90;;;;;;;8.23;81.55;101429.11;95254;1181;86032;-60
2021/09/07 00:57:51;;;;;;;7.30;4.90;;;;;;;8.25;81.67;101427.56;95257;1180;93118;-62
2021/09/07 01:00:00;;;;;;;7.70;4.80;;;;;;;8.29;81.77;101426.05;95220;1183;81116;-66
2021/09/07 01:02:10;;;;;;;8.30;4.70;;;;;;;8.32;81.54;101423.27;95262;1182;80322;-66
2021/09/07 01:04:18;;;;;;;10.00;5.50;;;;;;;8.36;81.61;101425.69;95232;1183;99335;-67
2021/09/07 01:06:26;;;;;;;9.00;5.30;;;;;;;8.41;81.65;101424.11;95274;1180;87437;-66
2021/09/07 01:08:39;;;;;;;7.90;5.20;;;;;;;8.45;81.71;101418.91;95249;1180;91456;-60
2021/09/07 01:10:46;;;;;;;10.50;5.80;;;;;;;8.47;81.79;101413.10;95278;1183;78577;-61
2021/09/07 01:12:55;;;;;;;9.90;5.80;;;;;;;8.51;81.53;101413.65;95299;1180;81875;-59
2021/09/07 01:15:04;;;;;;;12.10;6.50;;;;;;;8.54;81.61;101411.48;95229;1183;98148;-59
2021/09/07 01:17:17;;;;;;;9.20;6.10;;;;;;;8.56;81.64;101412.00;95264;1183;86539;-60
2021/09/07 01:19:25;;;;;;;9.00;5.80;;;;;;;8.59;81.55;101414.05;95235;1183;92873;-60
2021/09/07 01:21:36;;;;;;;9.70;5.90;;;;;;;8.62;81.60;101410.02;95253;1183;78282;-60
2021/09/07 01:23:46;;;;;;;9.90;6.80;;;;;;;8.62;81.66;101407.52;95273;1183;82012;-66
2021/09/07 01:25:53;;;;;;;10.80;6.10;;;;;;;8.62;81.72;101407.99;95261;1183;98950;-66
2021/09/07 01:28:04;;;;;;;8.70;6.00;;;;;;;8.61;81.57;101403.09;95272;1180;88191;-67
2021/09/07 01:30:15;;;;;;;9.80;6.30;;;;;;;8.59;81.46;101398.86;95266;1181;93357;-68
2021/09/07 01:32:22;;;;;;;10.10;6.40;;;;;;;8.60;81.62;101397.77;95275;1183;79338;-66
2021/09/07 01:34:33;;;;;;;12.60;7.50;;;;;;;8.63;81.62;101396.83;95272;1181;82003;-60
2021/09/07 01:36:41;;;;;;;12.20;8.70;;;;;;;8.65;81.49;101397.98;95291;1180;100217;-60
2021/09/07 01:38:48;;;;;;;13.10;8.70;;;;;;;8.69;81.45;101394.96;95266;1180;85909;-66
2021/09/07 01:40:57;;;;;;;15.30;8.10;;;;;;;8.68;81.46;101396.10;95175;1183;94031;-67
2021/09/07 01:43:05;;;;;;;14.90;9.50;;;;;;;8.67;81.39;101396.20;95217;1183;81239;-66
2021/09/07 01:45:14;;;;;;;16.10;10.20;;;;;;;8.75;81.44;101396.30;95195;1182;81073;-66
2021/09/07 01:47:25;;;;;;;18.20;10.40;;;;;;;8.79;81.41;101396.58;95258;1183;97608;-66
2021/09/07 01:49:32;;;;;;;12.90;9.60;;;;;;;8.80;81.37;101398.64;95223;1183;88004;-59
2021/09/07 01:51:41;;;;;;;13.80;9.10;;;;;;;8.77;81.30;101396.60;95231;1182;92731;-60
2021/09/07 01:53:49;;;;;;;13.60;8.40;;;;;;;8.72;81.31;101390.11;95231;1182;79852;-66
2021/09/07 01:55:56;;;;;;;11.00;7.70;;;;;;;8.67;81.25;101393.10;95250;1181;81796;-66
2021/09/07 01:58:07;;;;;;;13.30;7.90;;;;;;;8.65;81.29;101393.16;95261;1183;97363;-66
2021/09/07 02:00:17;;;;;;;12.30;7.70;;;;;;;8.63;81.24;101397.64;95236;1183;86971;-67
2021/09/07 02:02:24;;;;;;;13.00;7.80;;;;;;;8.60;81.33;101399.39;95137;1183;94413;-66
2021/09/07 02:04:32;;;;;;;13.90;8.00;;;;;;;8.57;81.38;101398.66;95190;1183;80975;-66
2021/09/07 02:06:39;;;;;;;12.50;8.10;;;;;;;8.53;81.34;101396.04;95256;1183;81289;-66
2021/09/07 02:08:47;;;;;;;11.30;7.50;;;;;;;8.48;81.31;101388.95;95234;1182;98961;-60
2021/09/07 02:10:54;;;;;;;11.60;8.20;;;;;;;8.44;81.41;101390.96;95268;1183;88660;-61
2021/09/07 02:13:02;;;;;;;11.20;7.90;;;;;;;8.41;81.40;101390.23;95250;1182;92740;-67
2021/09/07 02:15:12;;;;;;;12.80;7.70;;;;;;;8.38;81.44;101389.58;95229;1183;79375;-67
2021/09/07 02:17:20;;;;;;;10.00;7.80;;;;;;;8.35;81.57;101386.13;95289;1183;79902;-66
2021/09/07 02:19:28;;;;;;;13.50;9.10;;;;;;;8.33;81.66;101383.13;95256;1183;99121;-60
2021/09/07 02:21:35;;;;;;;13.20;8.60;;;;;;;8.32;81.49;101383.56;95275;1183;86093;-59
2021/09/07 02:23:43;;;;;;;13.40;8.60;;;;;;;8.32;81.61;101388.63;95253;1182;94155;-66
2021/09/07 02:25:51;;;;;;;12.40;8.30;;;;;;;8.33;81.63;101390.09;95258;1183;78383;-66
2021/09/07 02:27:59;;;;;;;12.20;7.80;;;;;;;8.31;81.67;101384.41;95232;1183;82153;-66
2021/09/07 02:30:09;;;;;;;11.80;7.40;;;;;;;8.29;81.43;101388.55;95249;1183;99143;-67
2021/09/07 02:32:17;;;;;;;11.30;7.70;;;;;;;8.26;81.46;101386.94;95263;1181;86830;-67
2021/09/07 02:34:24;;;;;;;12.10;8.20;;;;;;;8.24;81.45;101387.19;95173;1183;92657;-67
2021/09/07 02:36:32;;;;;;;13.10;8.70;;;;;;;8.21;81.31;101384.80;95264;1183;78511;-66
2021/09/07 02:38:39;;;;;;;12.90;7.70;;;;;;;8.17;81.33;101382.84;95269;1183;80688;-66
2021/09/07 02:40:50;;;;;;;12.70;8.90;;;;;;;8.14;81.37;101379.17;95247;1183;98075;-67
2021/09/07 02:42:59;;;;;;;11.60;7.90;;;;;;;8.13;81.31;101379.52;95211;1181;88525;-66
2021/09/07 02:45:08;;;;;;;12.00;8.00;;;;;;;8.09;81.41;101384.69;95279;1183;94578;-66
2021/09/07 02:47:15;;;;;;;11.90;7.90;;;;;;;8.09;81.36;101386.02;95266;1183;79498;-67
2021/09/07 02:49:23;;;;;;;14.80;8.50;;;;;;;8.07;81.40;101387.96;95216;1183;81451;-61
2021/09/07 02:51:31;;;;;;;11.90;8.20;;;;;;;8.07;81.46;101384.91;95267;1183;98464;-61
2021/09/07 02:53:38;;;;;;;11.20;8.60;;;;;;;8.07;81.35;101384.39;95233;1180;87178;-67
2021/09/07 02:55:46;;;;;;;12.00;8.10;;;;;;;8.04;81.32;101378.37;95257;1180;92251;-67
2021/09/07 02:57:53;;;;;;;16.60;9.10;;;;;;;8.03;81.51;101377.02;95326;1180;78992;-65
2021/09/07 03:00:01;;;;;;;14.80;9.40;;;;;;;8.01;81.69;101378.84;95189;1180;82121;-66
2021/09/07 03:02:09;;;;;;;12.60;8.30;;;;;;;8.01;81.63;101377.60;95245;1180;97338;-66
2021/09/07 03:04:16;;;;;;;14.60;9.00;;;;;;;8.01;81.77;101373.15;95246;1180;89180;-66
2021/09/07 03:06:24;;;;;;;11.80;8.50;;;;;;;8.01;81.78;101373.49;95260;1180;94971;-66
2021/09/07 03:08:32;;;;;;;12.60;9.30;;;;;;;8.01;81.76;101372.44;95212;1183;78689;-59
2021/09/07 03:10:40;;;;;;;12.50;8.70;;;;;;;8.01;81.73;101371.91;95244;1183;81886;-60
2021/09/07 03:12:49;;;;;;;13.60;9.00;;;;;;;7.99;81.73;101367.10;95216;1183;98714;-63
2021/09/07 03:14:57;;;;;;;12.90;8.70;;;;;;;7.99;81.81;101368.16;95226;1183;87219;-59
2021/09/07 03:17:06;;;;;;;12.70;8.80;;;;;;;7.99;81.98;101364.19;95272;1180;93702;-59
2021/09/07 03:19:13;;;;;;;12.40;8.50;;;;;;;8.01;81.99;101359.19;95259;1183;78493;-68
2021/09/07 03:21:21;;;;;;;16.00;9.00;;;;;;;8.00;82.07;101359.02;95287;1180;82046;-67
2021/09/07 03:23:28;;;;;;;13.00;8.90;;;;;;;8.02;82.15;101360.02;95230;1180;98121;-66
2021/09/07 03:25:36;;;;;;;15.30;9.30;;;;;;;8.00;82.13;101365.15;95253;1180;86112;-66
2021/09/07 03:27:46;;;;;;;13.90;9.30;;;;;;;8.00;81.92;101363.89;95235;1184;92888;-66
2021/09/07 03:29:54;;;;;;;10.80;8.10;;;;;;;7.99;81.91;101362.57;95304;1183;78986;-63
2021/09/07 03:32:03;;;;;;;14.60;8.20;;;;;;;7.96;81.83;101360.73;95311;1183;81688;-59
2021/09/07 03:34:11;;;;;;;14.20;8.70;;;;;;;7.95;82.05;101361.94;95259;1180;98718;-61
2021/09/07 03:36:19;;;;;;;16.00;8.20;;;;;;;7.95;81.95;101365.50;95282;1180;87719;-61
2021/09/07 03:38:26;;;;;;;15.60;8.20;;;;;;;7.92;81.93;101360.52;95240;1180;94142;-63
2021/09/07 03:40:34;;;;;;;13.10;8.40;;;;;;;7.89;82.03;101356.19;95282;1180;80916;-61
2021/09/07 03:42:45;;;;;;;12.90;8.50;;;;;;;7.92;81.99;101361.86;95296;1182;80730;-60
2021/09/07 03:44:53;;;;;;;15.60;8.60;;;;;;;7.91;81.88;101360.88;95269;1184;98781;-68
2021/09/07 03:47:04;;;;;;;12.70;7.90;;;;;;;7.91;81.87;101365.35;95317;1183;88470;-67
2021/09/07 03:49:11;;;;;;;14.80;8.80;;;;;;;7.92;82.07;101365.27;95275;1180;94125;-61
2021/09/07 03:51:22;;;;;;;14.10;8.10;;;;;;;7.87;82.05;101365.00;95237;1180;81317;-61
2021/09/07 03:53:31;;;;;;;16.20;8.30;;;;;;;7.85;82.03;101365.25;95231;1180;81158;-61
2021/09/07 03:55:39;;;;;;;16.30;9.30;;;;;;;7.86;81.91;101359.93;95228;1183;96420;-60
2021/09/07 03:57:49;;;;;;;12.30;8.50;;;;;;;7.86;81.74;101360.86;95275;1183;87166;-65
2021/09/07 03:59:58;;;;;;;14.00;8.30;;;;;;;7.82;82.04;101362.10;95204;1180;93671;-68
2021/09/07 04:02:06;;;;;;;14.60;8.90;;;;;;;7.80;81.90;101359.59;95239;1182;80379;-67
2021/09/07 04:04:13;;;;;;;12.70;8.60;;;;;;;7.78;81.93;101362.83;95245;1184;79967;-66
2021/09/07 04:06:21;;;;;;;13.10;9.00;;;;;;;7.78;82.00;101362.46;95283;1184;98963;-66
2021/09/07 04:08:29;;;;;;;14.20;8.80;;;;;;;7.78;82.01;101366.41;95267;1183;88282;-60
2021/09/07 04:10:36;;;;;;;14.60;8.60;;;;;;;7.77;82.04;101362.81;95248;1184;94475;-60
2021/09/07 04:12:45;;;;;;;14.50;8.70;;;;;;;7.73;82.15;101362.63;95241;1183;79851;-59
2021/09/07 04:14:56;;;;;;;13.50;8.30;;;;;;;7.73;82.12;101363.30;95303;1183;81425;-61
2021/09/07 04:17:05;;;;;;;15.40;8.30;;;;;;;7.77;82.06;101361.36;95264;1182;97690;-61
2021/09/07 04:19:13;;;;;;;15.10;8.60;;;;;;;7.80;82.02;101365.91;95206;1183;87976;-60
2021/09/07 04:21:21;;;;;;;12.90;8.20;;;;;;;7.78;82.13;101366.93;95285;1182;93215;-60
2021/09/07 04:23:31;;;;;;;21.80;11.10;;;;;;;7.79;82.19;101365.95;95264;1184;77884;-67
2021/09/07 04:25:39;;;;;;;11.70;8.20;;;;;;;7.85;82.16;101363.28;95305;1183;81492;-66
2021/09/07 04:27:50;;;;;;;15.50;9.40;;;;;;;7.86;82.15;101364.90;95238;1183;99768;-64
2021/09/07 04:29:57;;;;;;;16.20;8.60;;;;;;;7.89;82.17;101366.60;95215;1183;88556;-66
2021/09/07 04:32:06;;;;;;;14.00;9.80;;;;;;;7.93;82.20;101365.12;95219;1181;94739;-68
2021/09/07 04:34:17;;;;;;;14.90;8.30;;;;;;;8.03;82.29;101370.42;95175;1182;77472;-64
2021/09/07 04:36:25;;;;;;;15.40;8.50;;;;;;;8.12;82.35;101370.39;95182;1183;81568;-70
2021/09/07 04:38:32;;;;;;;12.30;8.00;;;;;;;8.22;82.39;101372.48;95211;1182;97809;-63
2021/09/07 04:40:41;;;;;;;12.30;8.00;;;;;;;8.36;82.33;101372.75;95244;1183;88185;-63
2021/09/07 04:42:49;;;;;;;14.80;8.30;;;;;;;8.50;82.41;101377.39;95266;1183;94330;-67
2021/09/07 04:44:59;;;;;;;13.20;8.70;;;;;;;8.64;82.36;101377.62;95215;1184;77911;-64
2021/09/07 04:47:07;;;;;;;12.20;8.20;;;;;;;8.79;82.24;101379.13;95289;1180;81840;-62
2021/09/07 04:49:15;;;;;;;15.20;8.30;;;;;;;8.92;82.18;101380.75;95222;1180;98213;-69
2021/09/07 04:51:22;;;;;;;13.40;9.50;;;;;;;9.08;82.21;101381.28;95224;1183;87993;-62
2021/09/07 04:53:30;;;;;;;14.00;7.90;;;;;;;9.21;82.16;101382.48;95224;1180;93661;-63
2021/09/07 04:55:38;;;;;;;13.40;8.00;;;;;;;9.32;82.00;101379.63;95253;1181;79454;-68
2021/09/07 04:57:48;;;;;;;15.40;8.90;;;;;;;9.45;81.88;101378.06;95274;1183;81882;-69
2021/09/07 04:59:56;;;;;;;13.60;9.10;;;;;;;9.60;81.91;101374.89;95249;1183;98245;-69
2021/09/07 05:02:04;;;;;;;15.80;9.00;;;;;;;9.76;81.75;101373.98;95270;1183;87175;-68
2021/09/07 05:04:11;;;;;;;14.20;9.30;;;;;;;9.93;81.64;101372.52;95245;1184;93595;-69
2021/09/07 05:06:22;;;;;;;16.00;9.10;;;;;;;10.10;81.65;101375.44;95235;1183;79628;-68
2021/09/07 05:08:29;;;;;;;14.30;9.50;;;;;;;10.29;81.46;101379.11;95257;1180;82185;-69
2021/09/07 05:10:40;;;;;;;16.20;10.20;;;;;;;10.44;81.32;101382.90;95243;1180;97446;-64
2021/09/07 05:12:48;;;;;;;14.40;9.70;;;;;;;10.59;81.25;101381.66;95299;1180;87919;-66
2021/09/07 05:14:56;;;;;;;13.90;9.40;;;;;;;10.72;81.24;101387.98;95230;1182;94849;-67
2021/09/07 05:17:03;;;;;;;12.20;8.60;;;;;;;10.90;80.99;101389.04;95287;1183;80067;-67
2021/09/07 05:19:13;;;;;;;12.80;9.60;;;;;;;11.20;81.00;101390.92;95261;1180;81741;-66
2021/09/07 05:21:20;;;;;;;12.00;8.50;;;;;;;11.69;81.18;101382.73;95280;1182;98626;-65
2021/09/07 05:23:28;;;;;;;16.20;10.20;;;;;;;12.11;80.87;101386.15;95160;1183;88243;-67
2021/09/07 05:25:36;;;;;;;18.90;11.50;;;;;;;12.38;80.54;101380.36;95220;1184;94435;-66
2021/09/07 05:27:44;;;;;;;14.70;11.00;;;;;;;12.65;80.27;101379.74;95252;1183;78246;-67
2021/09/07 05:29:51;;;;;;;14.30;9.70;;;;;;;13.07;79.73;101371.82;95243;1183;81690;-64
2021/09/07 05:31:59;;;;;;;14.10;9.40;;;;;;;13.61;78.90;101372.74;95244;1183;97085;-63
2021/09/07 05:34:07;;;;;;;14.80;8.80;;;;;;;13.96;78.06;101373.70;95293;1183;87468;-63
2021/09/07 05:36:14;;;;;;;15.80;9.40;;;;;;;14.12;77.36;101371.61;95253;1184;94450;-64
2021/09/07 05:38:22;;;;;;;13.60;8.90;;;;;;;14.19;76.75;101379.11;95257;1183;78418;-67
2021/09/07 05:40:33;;;;;;;13.30;9.10;;;;;;;14.21;76.23;101382.16;95269;1180;80449;-68
2021/09/07 05:42:43;;;;;;;13.20;8.70;;;;;;;14.18;75.74;101378.35;95271;1180;97753;-67
2021/09/07 05:44:50;;;;;;;14.90;9.40;;;;;;;14.21;75.42;101376.34;95273;1183;88682;-66
2021/09/07 05:47:01;;;;;;;13.80;8.80;;;;;;;14.22;75.12;101378.38;95256;1183;91492;-66
2021/09/07 05:49:09;;;;;;;12.50;9.20;;;;;;;14.14;74.79;101380.67;95209;1180;80435;-66
2021/09/07 05:51:16;;;;;;;11.90;8.20;;;;;;;14.05;74.38;101384.73;95254;1183;82405;-66
2021/09/07 05:53:24;;;;;;;15.00;9.80;;;;;;;14.02;74.22;101384.86;95231;1180;98544;-63
2021/09/07 05:55:32;;;;;;;11.90;8.70;;;;;;;14.06;74.10;101385.05;95239;1183;86558;-66
2021/09/07 05:57:43;;;;;;;14.80;8.70;;;;;;;14.05;74.02;101385.70;95267;1183;94657;-67
2021/09/07 05:59:54;;;;;;;15.50;9.80;;;;;;;14.02;73.80;101385.90;95243;1184;80708;-67
2021/09/07 06:02:02;;;;;;;13.50;8.70;;;;;;;14.03;73.75;101390.05;95261;1180;80895;-67
2021/09/07 06:04:09;;;;;;;14.90;9.50;;;;;;;14.05;73.56;101396.77;95260;1180;98855;-67
2021/09/07 06:06:17;;;;;;;12.80;8.70;;;;;;;14.09;73.43;101399.89;95223;1180;86658;-66
2021/09/07 06:08:24;;;;;;;15.20;8.90;;;;;;;14.08;73.31;101404.05;95200;1180;92541;-64
2021/09/07 06:10:32;;;;;;;14.40;8.90;;;;;;;14.06;73.09;101405.20;95283;1182;78433;-65
2021/09/07 06:12:40;;;;;;;13.20;9.00;;;;;;;14.11;73.20;101406.63;95280;1180;81750;-63
2021/09/07 06:14:50;;;;;;;11.70;8.60;;;;;;;14.20;73.08;101403.45;95199;1184;97929;-67
2021/09/07 06:16:58;;;;;;;13.30;8.50;;;;;;;14.30;72.98;101405.65;95211;1183;87436;-67
2021/09/07 06:19:05;;;;;;;16.60;9.10;;;;;;;14.38;72.86;101408.49;95198;1180;94549;-64
2021/09/07 06:21:13;;;;;;;14.60;8.50;;;;;;;14.41;72.65;101410.45;95228;1184;79759;-65
2021/09/07 06:23:24;;;;;;;13.90;9.50;;;;;;;14.52;72.56;101410.52;95271;1183;81848;-65
2021/09/07 06:25:32;;;;;;;12.60;8.70;;;;;;;14.58;72.50;101411.23;95297;1183;96774;-66
2021/09/07 06:27:43;;;;;;;13.70;8.10;;;;;;;14.71;72.51;101411.41;95252;1184;89312;-68
2021/09/07 06:29:53;;;;;;;12.50;8.80;;;;;;;14.81;72.18;101408.65;95205;1183;94541;-67
2021/09/07 06:32:01;;;;;;;13.90;8.90;;;;;;;14.86;71.73;101411.17;95243;1184;78253;-66
2021/09/07 06:34:11;;;;;;;13.50;8.10;;;;;;;14.86;71.56;101409.20;95223;1183;81599;-63
2021/09/07 06:36:19;;;;;;;12.60;8.10;;;;;;;14.86;71.35;101413.31;95260;1181;97606;-64
2021/09/07 06:38:27;;;;;;;13.90;8.60;;;;;;;14.84;71.24;101411.42;95281;1183;88720;-70
2021/09/07 06:40:34;;;;;;;13.50;7.90;;;;;;;14.88;71.17;101413.25;95279;1180;94541;-64
2021/09/07 06:42:42;;;;;;;13.50;8.50;;;;;;;14.90;70.95;101411.75;95250;1184;79500;-65
2021/09/07 06:44:50;;;;;;;13.20;7.70;;;;;;;14.87;70.76;101410.64;95276;1184;82222;-66
2021/09/07 06:46:57;;;;;;;13.10;8.10;;;;;;;14.89;70.43;101410.38;95270;1183;97530;-68
2021/09/07 06:49:05;;;;;;;14.90;8.40;;;;;;;15.01;70.57;101410.02;95274;1183;88443;-67
2021/09/07 06:51:13;;;;;;;14.50;8.50;;;;;;;15.07;70.33;101410.05;95292;1183;93836;-68
2021/09/07 06:53:20;;;;;;;14.80;9.20;;;;;;;15.10;69.93;101411.59;95246;1183;78035;-65
2021/09/07 06:55:28;;;;;;;11.90;7.70;;;;;;;15.24;70.05;101414.83;95273;1183;80354;-65
2021/09/07 06:57:38;;;;;;;11.80;7.70;;;;;;;15.35;69.89;101414.81;95307;1182;98654;-67
2021/09/07 06:59:46;;;;;;;15.10;8.20;;;;;;;15.44;69.65;101407.39;95250;1184;88264;-67
2021/09/07 07:01:57;;;;;;;13.10;7.80;;;;;;;15.59;69.55;101410.86;95255;1181;94516;-68
2021/09/07 07:04:04;;;;;;;12.50;8.00;;;;;;;15.82;69.74;101406.55;95242;1184;79860;-71
2021/09/07 07:06:12;;;;;;;14.60;8.00;;;;;;;15.90;69.04;101405.35;95345;1180;80356;-72
2021/09/07 07:08:19;;;;;;;10.70;7.10;;;;;;;15.93;68.39;101401.09;95288;1184;97785;-73
2021/09/07 07:10:27;;;;;;;11.40;7.10;;;;;;;15.96;68.10;101399.35;95320;1183;88175;-73
2021/09/07 07:12:35;;;;;;;60.10;38.60;;;;;;;16.23;68.08;101395.15;95348;1180;94406;-73
2021/09/07 07:14:42;;;;;;;25.80;16.90;;;;;;;16.50;67.62;101397.34;95253;1182;78436;-72
2021/09/07 07:16:50;;;;;;;17.60;10.30;;;;;;;16.58;67.58;101393.62;95271;1183;80698;-72
2021/09/07 07:19:00;;;;;;;12.50;7.20;;;;;;;16.57;66.99;101394.19;95280;1184;98013;-71
2021/09/07 07:21:08;;;;;;;13.30;6.70;;;;;;;16.56;66.95;101393.90;95214;1184;88862;-72
2021/09/07 07:23:16;;;;;;;12.80;6.50;;;;;;;16.57;66.64;101392.48;95249;1181;93653;-71
2021/09/07 07:25:23;;;;;;;9.90;6.10;;;;;;;16.91;65.64;101390.39;95258;1182;79274;-72
2021/09/07 07:27:31;;;;;;;12.40;6.30;;;;;;;17.53;65.61;101390.55;95300;1184;81125;-72
2021/09/07 07:29:38;;;;;;;12.40;6.30;;;;;;;17.90;64.98;101393.44;95252;1183;96772;-72
2021/09/07 07:31:46;;;;;;;13.50;6.80;;;;;;;17.96;64.64;101395.83;95340;1183;86290;-71
2021/09/07 07:33:54;;;;;;;10.20;6.00;;;;;;;17.90;64.40;101397.98;95252;1183;94733;-71
2021/09/07 07:36:01;;;;;;;11.70;6.00;;;;;;;17.94;64.36;101398.48;95271;1183;79209;-70
2021/09/07 07:38:09;;;;;;;11.00;6.00;;;;;;;17.92;64.13;101397.14;95285;1180;80568;-72
2021/09/07 07:40:17;;;;;;;11.10;5.90;;;;;;;17.89;63.80;101401.89;95278;1183;97804;-72
2021/09/07 07:42:24;;;;;;;9.60;6.30;;;;;;;17.82;63.68;101405.53;95308;1180;87943;-71
2021/09/07 07:44:38;;;;;;;12.90;6.00;;;;;;;17.75;63.42;101405.75;95259;1180;93903;-70
2021/09/07 07:46:46;;;;;;;9.80;5.80;;;;;;;17.62;63.14;101406.04;95296;1180;78742;-72
2021/09/07 07:48:54;;;;;;;9.80;5.40;;;;;;;17.60;62.98;101407.82;95262;1184;82192;-73
2021/09/07 07:51:02;;;;;;;10.00;5.80;;;;;;;17.59;63.32;101401.37;95291;1184;99441;-70
2021/09/07 07:53:10;;;;;;;10.00;5.50;;;;;;;17.80;62.90;101402.33;95289;1183;87658;-70
2021/09/07 07:55:17;;;;;;;10.40;5.50;;;;;;;17.98;62.55;101405.76;95237;1182;93755;-66
2021/09/07 07:57:25;;;;;;;10.90;5.20;;;;;;;18.04;61.72;101409.98;95263;1184;79660;-70
2021/09/07 07:59:33;;;;;;;9.70;5.50;;;;;;;18.12;61.69;101413.21;95237;1180;81562;-70
2021/09/07 08:01:40;;;;;;;7.60;4.90;;;;;;;18.83;61.89;101418.75;95215;1180;99648;-70
2021/09/07 08:03:49;;;;;;;9.20;5.70;;;;;;;19.80;60.87;101418.29;95212;1180;88215;-68
2021/09/07 08:05:56;;;;;;;8.50;5.10;;;;;;;21.20;60.22;101411.48;95202;1183;95180;-67
2021/09/07 08:08:06;;;;;;;8.30;5.10;;;;;;;22.90;58.80;101411.91;95200;1184;78479;-64
2021/09/07 08:10:15;;;;;;;10.20;5.40;;;;;;;24.47;57.23;101409.58;95241;1183;81742;-64
2021/09/07 08:12:23;;;;;;;11.40;5.10;;;;;;;25.37;53.54;101416.30;95255;1184;97744;-64
2021/09/07 08:14:30;;;;;;;8.80;4.90;;;;;;;25.87;52.59;101418.46;95212;1184;87863;-64
2021/09/07 08:16:38;;;;;;;9.80;4.40;;;;;;;26.82;51.89;101419.12;95251;1184;94900;-65
2021/09/07 08:18:45;;;;;;;9.30;4.60;;;;;;;27.71;50.78;101424.37;95257;1182;77970;-64
2021/09/07 08:20:53;;;;;;;9.60;4.40;;;;;;;28.38;48.82;101418.45;95315;1180;82148;-64
2021/09/07 08:23:02;;;;;;;6.50;4.10;;;;;;;28.91;47.47;101417.04;95222;1182;98345;-64
2021/09/07 08:25:12;;;;;;;8.60;4.80;;;;;;;29.20;46.00;101418.72;95219;1183;88451;-64
2021/09/07 08:27:20;;;;;;;7.40;4.10;;;;;;;29.70;44.92;101418.25;95280;1180;93010;-64
2021/09/07 08:29:28;;;;;;;8.90;4.80;;;;;;;29.76;43.60;101418.70;95232;1180;79836;-67
2021/09/07 08:31:35;;;;;;;9.90;4.30;;;;;;;29.86;42.85;101415.18;95264;1183;81910;-67
2021/09/07 08:33:42;;;;;;;9.30;5.10;;;;;;;30.23;42.31;101411.34;95257;1184;98134;-67
2021/09/07 08:35:51;;;;;;;8.40;4.90;;;;;;;30.38;40.82;101406.72;95221;1181;86865;-65
2021/09/07 08:37:59;;;;;;;7.60;4.20;;;;;;;30.37;40.21;101408.08;95260;1180;94089;-66
2021/09/07 08:40:11;;;;;;;7.60;4.60;;;;;;;29.87;38.51;101407.61;95230;1180;78397;-66
2021/09/07 08:42:21;;;;;;;8.50;4.00;;;;;;;30.09;38.53;101408.25;95241;1180;82224;-66
2021/09/07 08:44:29;;;;;;;8.30;4.30;;;;;;;30.04;38.10;101404.69;95174;1184;97773;-65
2021/09/07 08:46:37;;;;;;;5.00;3.70;;;;;;;29.81;37.52;101409.58;95223;1184;87921;-64
2021/09/07 08:48:45;;;;;;;9.60;4.50;;;;;;;29.85;36.89;101409.94;95242;1182;94933;-65
2021/09/07 08:50:54;;;;;;;9.00;4.30;;;;;;;29.99;36.75;101414.48;95276;1183;80065;-66
2021/09/07 08:53:02;;;;;;;8.60;3.80;;;;;;;30.31;35.80;101407.73;95274;1183;82380;-66
2021/09/07 08:55:12;;;;;;;7.00;3.90;;;;;;;30.21;36.03;101409.73;95218;1183;98719;-64
2021/09/07 08:57:19;;;;;;;7.30;3.90;;;;;;;30.14;35.28;101411.55;95271;1184;87464;-64
2021/09/07 08:59:31;;;;;;;5.60;3.50;;;;;;;30.48;34.88;101406.45;95224;1183;93857;-65
2021/09/07 09:01:47;;;;;;;6.50;3.60;;;;;;;30.36;34.18;101404.67;95279;1180;78553;-66
2021/09/07 09:03:54;;;;;;;6.40;3.90;;;;;;;30.36;33.68;101398.93;95244;1182;82171;-65
2021/09/07 09:06:02;;;;;;;7.00;3.50;;;;;;;30.46;33.43;101397.94;95239;1184;99850;-65
2021/09/07 09:08:14;;;;;;;7.40;3.60;;;;;;;30.49;33.62;101397.05;95306;1183;87373;-63
2021/09/07 09:10:24;;;;;;;6.50;3.30;;;;;;;30.57;33.18;101396.86;95237;1183;94275;-65
2021/09/07 09:12:37;;;;;;;6.60;3.50;;;;;;;30.14;32.85;101396.27;95272;1184;79483;-65
2021/09/07 09:14:46;;;;;;;6.80;3.70;;;;;;;30.24;34.32;101395.65;95211;1180;81430;-64
2021/09/07 09:16:54;;;;;;;5.20;2.90;;;;;;;30.68;32.91;101398.23;95259;1180;99838;-65
2021/09/07 09:19:03;;;;;;;4.80;3.10;;;;;;;30.73;32.74;101395.85;95250;1180;87017;-66
2021/09/07 09:21:31;;;;;;;4.80;3.10;;;;;;;30.70;31.81;101397.96;95258;1183;94696;-65
2021/09/07 09:23:39;;;;;;;4.20;2.70;;;;;;;30.58;31.12;101396.77;95243;1183;79884;-65
2021/09/07 09:25:46;;;;;;;5.40;2.80;;;;;;;30.33;31.14;101397.47;95311;1180;81979;-65
2021/09/07 09:28:09;;;;;;;6.10;3.00;;;;;;;30.05;31.83;101401.05;95276;1180;98305;-64
2021/09/07 09:30:24;;;;;;;6.90;2.90;;;;;;;30.23;31.88;101402.92;95210;1181;87408;-64
2021/09/07 09:32:31;;;;;;;3.90;2.80;;;;;;;29.74;30.73;101400.37;95246;1183;93750;-65
2021/09/07 09:34:42;;;;;;;3.50;2.70;;;;;;;29.29;31.58;101399.52;95251;1183;78335;-67
2021/09/07 09:37:10;;;;;;;6.00;2.90;;;;;;;29.46;31.67;101399.22;95263;1183;80685;-66
2021/09/07 09:39:36;;;;;;;6.00;3.10;;;;;;;29.28;31.65;101400.63;95194;1183;98636;-65
2021/09/07 09:41:53;;;;;;;4.60;2.60;;;;;;;28.68;31.57;101405.91;95286;1182;86909;-64
2021/09/07 09:44:10;;;;;;;4.10;2.70;;;;;;;28.27;31.91;101402.27;95264;1183;95196;-63
2021/09/07 09:46:25;;;;;;;4.40;2.50;;;;;;;27.83;32.51;101398.48;95245;1183;78842;-68
2021/09/07 09:48:33;;;;;;;4.20;2.50;;;;;;;27.45;32.65;101396.14;95271;1180;81436;-65
2021/09/07 09:50:42;;;;;;;4.80;2.70;;;;;;;26.94;32.82;101389.23;95248;1183;98597;-67
2021/09/07 09:52:51;;;;;;;3.70;2.70;;;;;;;26.50;33.91;101392.09;95303;1183;88857;-65
2021/09/07 09:54:58;;;;;;;5.80;2.90;;;;;;;26.15;33.87;101386.42;95234;1183;93148;-65
2021/09/07 09:57:08;;;;;;;5.50;2.30;;;;;;;25.73;34.33;101387.11;95249;1183;79037;-63
2021/09/07 09:59:16;;;;;;;5.00;2.70;;;;;;;25.21;35.05;101387.86;95302;1180;81791;-66